Time;durP1;ratioP1;P1;durP2;ratioP2;P2;SDS_P1;SDS_P2;PMS_P1;PMS_P2;Temp;Humidity;BMP_temperature;BMP_pressure;BME280_temperature;BME280_humidity;BME280_pressure;Samples;Min_cycle;Max_cycle;Signal;HPM_P1;HPM_P2
2023/07/15 00:00:38;;;;;;;;;;;25.20;90.00;;;;;;5079527;28;20266;-43
2023/07/15 00:03:05;;;;;;;;;;;25.20;90.00;;;;;;5097348;28;20048;-41
2023/07/15 00:05:35;;;;;;;;;;;25.20;90.00;;;;;;5097599;28;19927;-42
2023/07/15 00:08:01;;;;;;;;;;;25.20;90.00;;;;;;5096917;28;19943;-41
2023/07/15 00:10:26;;;;;;;;;;;25.20;90.00;;;;;;5097497;28;19991;-47
2023/07/15 00:12:52;;;;;;;;;;;25.20;90.00;;;;;;5097385;28;19951;-43
2023/07/15 00:15:17;;;;;;;;;;;25.20;90.00;;;;;;5097189;28;19970;-45
2023/07/15 00:17:43;;;;;;;;;;;25.20;90.00;;;;;;5097576;28;20010;-43
2023/07/15 00:20:14;;;;;;;;;;;25.20;90.00;;;;;;5097372;28;19915;-42
2023/07/15 00:22:41;;;;;;;;;;;25.20;90.00;;;;;;5097131;28;19904;-42
2023/07/15 00:25:09;;;;;;;;;;;25.20;90.00;;;;;;5097247;28;19908;-43
2023/07/15 00:27:35;;;;;;;;;;;25.20;90.00;;;;;;5097309;28;19911;-45
2023/07/15 00:30:00;;;;;;;;;;;25.20;90.00;;;;;;5096953;28;19904;-42
2023/07/15 00:32:26;;;;;;;;;;;25.20;90.00;;;;;;5097090;28;19908;-42
2023/07/15 00:34:51;;;;;;;;;;;25.20;90.00;;;;;;5096989;28;19918;-42
2023/07/15 00:37:17;;;;;;;;;;;25.20;90.00;;;;;;5096997;28;19956;-41
2023/07/15 00:39:43;;;;;;;;;;;25.20;90.00;;;;;;5096994;28;20345;-46
2023/07/15 00:42:13;;;;;;;;;;;25.20;90.10;;;;;;5078680;28;20244;-45
2023/07/15 00:44:39;;;;;;;;;;;25.20;90.10;;;;;;5078246;28;19916;-44
2023/07/15 00:47:05;;;;;;;;;;;25.20;90.10;;;;;;5096849;28;20468;-43
2023/07/15 00:49:32;;;;;;;;;;;25.20;90.10;;;;;;5096471;28;19904;-42
2023/07/15 00:52:12;;;;;;;;;;;25.20;90.10;;;;;;5096254;28;20274;-41
2023/07/15 00:54:40;;;;;;;;;;;25.20;90.10;;;;;;5096550;28;19970;-41
2023/07/15 00:57:07;;;;;;;;;;;25.20;90.10;;;;;;5096439;28;19912;-43
2023/07/15 00:59:33;;;;;;;;;;;25.20;90.10;;;;;;5096108;28;19912;-43
2023/07/15 01:01:59;;;;;;;;;;;25.20;90.10;;;;;;5096051;28;20261;-42
2023/07/15 01:04:25;;;;;;;;;;;25.20;90.10;;;;;;5096515;28;19995;-42
2023/07/15 01:06:50;;;;;;;;;;;25.20;90.10;;;;;;5095525;28;20306;-42
2023/07/15 01:09:15;;;;;;;;;;;25.20;90.10;;;;;;5096136;28;19908;-44
2023/07/15 01:11:41;;;;;;;;;;;25.20;90.10;;;;;;5096073;28;20346;-42
2023/07/15 01:14:09;;;;;;;;;;;25.20;90.10;;;;;;5096275;28;19908;-42
2023/07/15 01:16:35;;;;;;;;;;;25.20;90.10;;;;;;5096656;28;19911;-43
2023/07/15 01:19:00;;;;;;;;;;;25.20;90.10;;;;;;5096126;28;19908;-45
2023/07/15 01:21:28;;;;;;;;;;;25.20;90.10;;;;;;5095839;28;19916;-43
2023/07/15 01:23:53;;;;;;;;;;;25.20;90.20;;;;;;5096074;28;19985;-43
2023/07/15 01:26:19;;;;;;;;;;;25.20;90.10;;;;;;5095782;28;20308;-42
2023/07/15 01:28:44;;;;;;;;;;;25.20;90.10;;;;;;5096077;28;19911;-43
2023/07/15 01:31:10;;;;;;;;;;;25.30;90.20;;;;;;5095881;28;20343;-43
2023/07/15 01:33:35;;;;;;;;;;;25.20;90.10;;;;;;5096331;28;19908;-43
2023/07/15 01:36:02;;;;;;;;;;;25.20;90.10;;;;;;5095606;28;19904;-43
2023/07/15 01:38:28;;;;;;;;;;;25.30;90.20;;;;;;5095437;28;19908;-44
2023/07/15 01:40:53;;;;;;;;;;;25.20;90.20;;;;;;5095617;28;19908;-44
2023/07/15 01:43:19;;;;;;;;;;;25.30;90.20;;;;;;5095465;28;19911;-42
2023/07/15 01:45:46;;;;;;;;;;;25.20;90.20;;;;;;5095898;28;19916;-45
2023/07/15 01:48:11;;;;;;;;;;;25.30;90.20;;;;;;5095606;28;19905;-44
2023/07/15 01:50:37;;;;;;;;;;;25.20;90.20;;;;;;5095647;28;20057;-42
2023/07/15 01:53:03;;;;;;;;;;;25.20;90.20;;;;;;5095281;28;19911;-42
2023/07/15 01:55:28;;;;;;;;;;;25.20;90.10;;;;;;5095418;28;19904;-43
2023/07/15 01:57:54;;;;;;;;;;;25.20;90.10;;;;;;5095110;28;19908;-44
2023/07/15 02:00:20;;;;;;;;;;;25.20;90.40;;;;;;5095178;28;19908;-43
2023/07/15 02:02:46;;;;;;;;;;;25.20;90.20;;;;;;5097177;28;20304;-43
2023/07/15 02:05:11;;;;;;;;;;;25.20;90.10;;;;;;5096317;28;19999;-45
2023/07/15 02:07:37;;;;;;;;;;;25.20;90.10;;;;;;5106306;28;19954;-42
2023/07/15 02:10:03;;;;;;;;;;;25.20;90.10;;;;;;5095390;28;19904;-42
2023/07/15 02:12:28;;;;;;;;;;;25.30;90.20;;;;;;5097071;28;20262;-41
2023/07/15 02:14:54;;;;;;;;;;;25.30;89.30;;;;;;5098679;28;20281;-44
2023/07/15 02:17:22;;;;;;;;;;;25.20;87.60;;;;;;5106873;28;19904;-43
2023/07/15 02:19:48;;;;;;;;;;;25.20;88.80;;;;;;5114468;28;19942;-41
2023/07/15 02:22:14;;;;;;;;;;;25.20;89.30;;;;;;5096270;28;20327;-43
2023/07/15 02:24:39;;;;;;;;;;;25.20;89.60;;;;;;5095076;28;19939;-42
2023/07/15 02:27:05;;;;;;;;;;;25.20;90.10;;;;;;5094868;28;19983;-42
2023/07/15 02:29:30;;;;;;;;;;;25.20;89.90;;;;;;5094741;28;19904;-44
2023/07/15 02:31:57;;;;;;;;;;;25.20;90.00;;;;;;5094776;28;19915;-43
2023/07/15 02:34:22;;;;;;;;;;;25.20;90.00;;;;;;5113019;28;19908;-43
2023/07/15 02:36:48;;;;;;;;;;;25.30;90.10;;;;;;5107259;28;20374;-44
2023/07/15 02:39:13;;;;;;;;;;;25.30;90.10;;;;;;5094606;28;19954;-42
2023/07/15 02:41:39;;;;;;;;;;;25.30;90.10;;;;;;5094511;28;20380;-44
2023/07/15 02:44:05;;;;;;;;;;;25.30;90.20;;;;;;5094067;28;20347;-43
2023/07/15 02:46:30;;;;;;;;;;;25.30;90.20;;;;;;5094667;28;20224;-44
2023/07/15 02:48:56;;;;;;;;;;;25.30;90.20;;;;;;5094645;28;19915;-42
2023/07/15 02:51:23;;;;;;;;;;;25.30;90.20;;;;;;5094356;28;20354;-44
2023/07/15 02:53:49;;;;;;;;;;;25.30;90.20;;;;;;5100190;28;19951;-42
2023/07/15 02:56:15;;;;;;;;;;;25.30;90.20;;;;;;5094617;28;19912;-43
2023/07/15 02:58:41;;;;;;;;;;;25.30;90.30;;;;;;5094398;28;20295;-42
2023/07/15 03:01:10;;;;;;;;;;;25.30;90.30;;;;;;5094472;28;19908;-44
2023/07/15 03:03:38;;;;;;;;;;;25.20;90.20;;;;;;5086530;28;19938;-43
2023/07/15 03:06:03;;;;;;;;;;;25.30;90.30;;;;;;5095721;28;20299;-41
2023/07/15 03:08:29;;;;;;;;;;;25.30;90.30;;;;;;5090772;28;20383;-42
2023/07/15 03:10:55;;;;;;;;;;;25.30;90.30;;;;;;5113772;28;19904;-42
2023/07/15 03:13:20;;;;;;;;;;;25.30;90.30;;;;;;5099489;28;19957;-45
2023/07/15 03:15:46;;;;;;;;;;;25.30;90.30;;;;;;5093987;28;19908;-42
2023/07/15 03:18:12;;;;;;;;;;;25.20;90.30;;;;;;5094147;28;20394;-42
2023/07/15 03:20:37;;;;;;;;;;;25.20;90.30;;;;;;5094321;28;19915;-44
2023/07/15 03:23:03;;;;;;;;;;;25.30;90.40;;;;;;5093782;28;19904;-44
2023/07/15 03:25:29;;;;;;;;;;;25.20;90.30;;;;;;5097751;28;20078;-42
2023/07/15 03:27:55;;;;;;;;;;;25.30;90.40;;;;;;5093614;28;20405;-44
2023/07/15 03:30:21;;;;;;;;;;;25.30;90.40;;;;;;5114804;28;20350;-45
2023/07/15 03:32:46;;;;;;;;;;;25.30;90.40;;;;;;5095850;28;19916;-44
2023/07/15 03:35:12;;;;;;;;;;;25.30;90.40;;;;;;5097917;28;19908;-42
2023/07/15 03:37:38;;;;;;;;;;;25.30;90.40;;;;;;5096897;28;19912;-44
2023/07/15 03:40:08;;;;;;;;;;;25.30;90.40;;;;;;5098146;28;20006;-42
2023/07/15 03:42:37;;;;;;;;;;;25.30;90.40;;;;;;5098025;28;19908;-43
2023/07/15 03:45:03;;;;;;;;;;;25.30;90.40;;;;;;5097974;28;19942;-42
2023/07/15 03:47:29;;;;;;;;;;;25.30;90.40;;;;;;5097929;28;20011;-42
2023/07/15 03:49:54;;;;;;;;;;;25.30;90.30;;;;;;5097974;28;20406;-43
2023/07/15 03:52:20;;;;;;;;;;;25.30;90.30;;;;;;5097558;28;19916;-42
2023/07/15 03:54:45;;;;;;;;;;;25.30;90.30;;;;;;5097497;28;20420;-45
2023/07/15 03:57:11;;;;;;;;;;;25.30;90.30;;;;;;5097770;28;19951;-42
2023/07/15 03:59:36;;;;;;;;;;;25.20;90.30;;;;;;5097674;28;19936;-42
2023/07/15 04:02:02;;;;;;;;;;;25.20;90.30;;;;;;5097398;28;20363;-42
2023/07/15 04:04:28;;;;;;;;;;;25.20;90.30;;;;;;5097335;28;19908;-42
2023/07/15 04:06:54;;;;;;;;;;;25.20;90.30;;;;;;5097353;28;19908;-42
2023/07/15 04:09:20;;;;;;;;;;;25.20;90.30;;;;;;5097456;28;19943;-42
2023/07/15 04:11:46;;;;;;;;;;;25.20;90.30;;;;;;5097413;28;20319;-42
2023/07/15 04:14:14;;;;;;;;;;;25.20;90.30;;;;;;5097284;28;20363;-43
2023/07/15 04:16:39;;;;;;;;;;;25.20;90.30;;;;;;5097353;28;20236;-42
2023/07/15 04:19:05;;;;;;;;;;;25.20;90.30;;;;;;5097086;28;19977;-44
2023/07/15 04:21:31;;;;;;;;;;;25.20;90.30;;;;;;5097268;28;20024;-42
2023/07/15 04:23:57;;;;;;;;;;;25.20;90.30;;;;;;5097274;28;19912;-43
2023/07/15 04:26:22;;;;;;;;;;;25.20;90.30;;;;;;5096966;28;19961;-45
2023/07/15 04:28:49;;;;;;;;;;;25.20;90.30;;;;;;5096883;28;19909;-44
2023/07/15 04:31:15;;;;;;;;;;;25.20;90.30;;;;;;5096963;28;19951;-46
2023/07/15 04:33:41;;;;;;;;;;;25.20;90.30;;;;;;5097032;28;19913;-44
2023/07/15 04:36:07;;;;;;;;;;;25.20;90.30;;;;;;5096731;28;19947;-42
2023/07/15 04:38:32;;;;;;;;;;;25.20;90.30;;;;;;5078750;28;19919;-43
2023/07/15 04:40:58;;;;;;;;;;;25.20;90.30;;;;;;5097177;28;19912;-45
2023/07/15 04:43:23;;;;;;;;;;;25.20;90.30;;;;;;5096913;28;20364;-42
2023/07/15 04:45:49;;;;;;;;;;;25.20;90.30;;;;;;5096785;28;19948;-44
2023/07/15 04:48:14;;;;;;;;;;;25.20;90.30;;;;;;5096892;28;20270;-46
2023/07/15 04:50:42;;;;;;;;;;;25.20;90.30;;;;;;5095633;28;21428;-43
2023/07/15 04:53:07;;;;;;;;;;;25.20;90.20;;;;;;5096700;28;19916;-45
2023/07/15 04:55:33;;;;;;;;;;;25.20;90.20;;;;;;5096575;28;20350;-46
2023/07/15 04:57:58;;;;;;;;;;;25.20;90.20;;;;;;5096217;28;19912;-42
2023/07/15 05:00:27;;;;;;;;;;;25.20;90.20;;;;;;5096146;28;19912;-43
2023/07/15 05:02:52;;;;;;;;;;;25.20;90.20;;;;;;5096441;28;20396;-42
2023/07/15 05:05:18;;;;;;;;;;;25.20;90.20;;;;;;5096294;28;19909;-44
2023/07/15 05:07:43;;;;;;;;;;;25.20;90.20;;;;;;5096304;28;19908;-44
2023/07/15 05:10:10;;;;;;;;;;;25.20;90.20;;;;;;5096120;28;20256;-43
2023/07/15 05:12:36;;;;;;;;;;;25.20;90.20;;;;;;5096124;28;19912;-44
2023/07/15 05:15:02;;;;;;;;;;;25.20;90.30;;;;;;5096227;28;19915;-42
2023/07/15 05:17:28;;;;;;;;;;;25.20;90.30;;;;;;5095985;28;19912;-42
2023/07/15 05:19:53;;;;;;;;;;;25.20;90.30;;;;;;5096011;28;19918;-44
2023/07/15 05:22:19;;;;;;;;;;;25.20;90.30;;;;;;5096023;28;19916;-43
2023/07/15 05:24:44;;;;;;;;;;;25.20;90.30;;;;;;5095820;28;20268;-42
2023/07/15 05:27:10;;;;;;;;;;;25.20;90.30;;;;;;5077386;28;19908;-44
2023/07/15 05:29:36;;;;;;;;;;;25.20;90.30;;;;;;5095650;28;19934;-42
2023/07/15 05:32:01;;;;;;;;;;;25.20;90.30;;;;;;5095505;28;20355;-43
2023/07/15 05:34:27;;;;;;;;;;;25.20;90.30;;;;;;5095534;28;19918;-43
2023/07/15 05:36:53;;;;;;;;;;;25.20;90.30;;;;;;5095464;28;19912;-43
2023/07/15 05:39:19;;;;;;;;;;;25.20;90.30;;;;;;5095221;28;19912;-46
2023/07/15 05:41:44;;;;;;;;;;;25.20;90.30;;;;;;5095519;28;19919;-42
2023/07/15 05:44:10;;;;;;;;;;;25.20;90.30;;;;;;5095522;28;19908;-45
2023/07/15 05:46:36;;;;;;;;;;;25.20;90.30;;;;;;5096260;28;19923;-46
2023/07/15 05:49:03;;;;;;;;;;;25.20;90.30;;;;;;5095367;28;19955;-41
2023/07/15 05:51:29;;;;;;;;;;;25.20;90.30;;;;;;5095479;28;19908;-44
2023/07/15 05:53:54;;;;;;;;;;;25.20;90.30;;;;;;5094913;28;19908;-44
2023/07/15 05:56:20;;;;;;;;;;;25.20;90.20;;;;;;5095254;28;19915;-44
2023/07/15 05:58:45;;;;;;;;;;;25.20;90.20;;;;;;5094884;28;19916;-44
2023/07/15 06:01:11;;;;;;;;;;;25.20;90.20;;;;;;5094733;28;19992;-41
2023/07/15 06:03:36;;;;;;;;;;;25.20;90.20;;;;;;5095257;28;19954;-42
2023/07/15 06:06:02;;;;;;;;;;;25.20;90.20;;;;;;5095083;28;20422;-43
2023/07/15 06:08:28;;;;;;;;;;;25.20;90.20;;;;;;5094753;28;19915;-41
2023/07/15 06:10:53;;;;;;;;;;;25.20;90.20;;;;;;5095158;28;20416;-42
2023/07/15 06:13:19;;;;;;;;;;;25.20;90.20;;;;;;5097750;28;19962;-43
2023/07/15 06:15:50;;;;;;;;;;;25.20;90.20;;;;;;5094123;28;19965;-42
2023/07/15 06:18:16;;;;;;;;;;;25.20;90.20;;;;;;5103460;28;19978;-42
2023/07/15 06:20:42;;;;;;;;;;;25.20;88.60;;;;;;5095814;28;19950;-42
2023/07/15 06:23:08;;;;;;;;;;;25.20;87.30;;;;;;5109712;28;20304;-42
2023/07/15 06:25:34;;;;;;;;;;;25.20;88.40;;;;;;5114658;28;20004;-42
2023/07/15 06:27:59;;;;;;;;;;;25.20;89.20;;;;;;5114908;28;19916;-43
2023/07/15 06:30:26;;;;;;;;;;;25.20;89.70;;;;;;5112445;28;19960;-42
2023/07/15 06:32:51;;;;;;;;;;;25.20;90.00;;;;;;5094527;28;20062;-41
2023/07/15 06:35:17;;;;;;;;;;;25.20;90.00;;;;;;5102483;28;20390;-43
2023/07/15 06:37:45;;;;;;;;;;;25.20;90.10;;;;;;5096638;28;19919;-42
2023/07/15 06:40:11;;;;;;;;;;;25.20;89.10;;;;;;5100585;28;19908;-45
2023/07/15 06:42:36;;;;;;;;;;;25.20;89.20;;;;;;5109361;28;19919;-44
2023/07/15 06:45:02;;;;;;;;;;;25.20;89.50;;;;;;5098491;28;19920;-44
2023/07/15 06:47:27;;;;;;;;;;;25.20;89.80;;;;;;5105477;28;19911;-45
2023/07/15 06:49:53;;;;;;;;;;;25.20;89.90;;;;;;5114977;28;20015;-45
2023/07/15 06:52:18;;;;;;;;;;;25.20;89.90;;;;;;5114593;28;19907;-43
2023/07/15 06:54:44;;;;;;;;;;;25.20;90.00;;;;;;5114382;28;19914;-44
2023/07/15 06:57:09;;;;;;;;;;;25.20;90.00;;;;;;5114286;28;19907;-42
2023/07/15 06:59:34;;;;;;;;;;;25.20;90.00;;;;;;5114209;28;19943;-42
2023/07/15 07:02:00;;;;;;;;;;;25.20;90.00;;;;;;5114523;28;19912;-43
2023/07/15 07:04:25;;;;;;;;;;;25.20;90.00;;;;;;5114161;28;19947;-41
2023/07/15 07:06:51;;;;;;;;;;;25.20;90.00;;;;;;5114489;28;19915;-42
2023/07/15 07:09:16;;;;;;;;;;;25.20;90.10;;;;;;5114098;28;20417;-44
2023/07/15 07:11:42;;;;;;;;;;;25.20;90.10;;;;;;5114167;28;19956;-45
2023/07/15 07:14:08;;;;;;;;;;;25.20;90.10;;;;;;5114388;28;19950;-47
2023/07/15 07:16:33;;;;;;;;;;;25.20;90.20;;;;;;5113950;28;20393;-44
2023/07/15 07:18:58;;;;;;;;;;;25.20;90.20;;;;;;5095852;28;19953;-44
2023/07/15 07:21:24;;;;;;;;;;;25.20;90.20;;;;;;5113823;28;19912;-43
2023/07/15 07:23:52;;;;;;;;;;;25.20;90.20;;;;;;5114065;28;19914;-45
2023/07/15 07:26:18;;;;;;;;;;;25.20;90.20;;;;;;5113987;28;20385;-44
2023/07/15 07:28:44;;;;;;;;;;;25.20;90.10;;;;;;5114347;28;19907;-43
2023/07/15 07:31:10;;;;;;;;;;;25.20;90.10;;;;;;5114305;28;19914;-42
2023/07/15 07:33:36;;;;;;;;;;;25.10;90.10;;;;;;5114159;28;19912;-42
2023/07/15 07:36:02;;;;;;;;;;;25.20;90.10;;;;;;5113756;28;19915;-43
2023/07/15 07:38:28;;;;;;;;;;;25.20;90.10;;;;;;5113789;28;20278;-42
2023/07/15 07:40:53;;;;;;;;;;;25.20;90.20;;;;;;5114067;28;19964;-42
2023/07/15 07:43:19;;;;;;;;;;;25.20;90.10;;;;;;5095933;28;19915;-42
2023/07/15 07:45:44;;;;;;;;;;;25.20;90.20;;;;;;5113683;28;20006;-43
2023/07/15 07:48:10;;;;;;;;;;;25.20;90.20;;;;;;5113933;28;19907;-42
2023/07/15 07:50:35;;;;;;;;;;;25.20;90.20;;;;;;5114180;28;19912;-43
2023/07/15 07:53:01;;;;;;;;;;;25.20;90.20;;;;;;5113903;28;19951;-42
2023/07/15 07:55:26;;;;;;;;;;;25.20;90.20;;;;;;5113705;28;19919;-42
2023/07/15 07:57:52;;;;;;;;;;;25.20;90.20;;;;;;5113901;28;19919;-42
2023/07/15 08:00:18;;;;;;;;;;;25.20;90.20;;;;;;5113403;28;20419;-45
2023/07/15 08:02:43;;;;;;;;;;;25.20;90.20;;;;;;5113576;28;19908;-41
2023/07/15 08:05:09;;;;;;;;;;;25.20;90.10;;;;;;5113535;28;19934;-42
2023/07/15 08:07:34;;;;;;;;;;;25.20;90.10;;;;;;5113698;28;19908;-45
2023/07/15 08:10:00;;;;;;;;;;;25.20;90.10;;;;;;5113495;28;19908;-44
2023/07/15 08:12:25;;;;;;;;;;;25.20;90.10;;;;;;5113637;28;19911;-42
2023/07/15 08:14:51;;;;;;;;;;;25.20;90.10;;;;;;5095486;28;19965;-41
2023/07/15 08:17:17;;;;;;;;;;;25.20;90.10;;;;;;5116244;28;19908;-45
2023/07/15 08:19:43;;;;;;;;;;;25.20;90.10;;;;;;5117318;28;20010;-41
2023/07/15 08:22:08;;;;;;;;;;;25.10;90.10;;;;;;5117676;28;19943;-41
2023/07/15 08:24:34;;;;;;;;;;;25.10;90.00;;;;;;5117458;28;19911;-43
2023/07/15 08:27:00;;;;;;;;;;;25.20;90.00;;;;;;5117343;28;20342;-42
2023/07/15 08:29:25;;;;;;;;;;;25.20;90.10;;;;;;5117237;28;20255;-42
2023/07/15 08:31:51;;;;;;;;;;;25.20;90.00;;;;;;5117479;28;20056;-42
2023/07/15 08:34:16;;;;;;;;;;;25.20;90.10;;;;;;5116647;28;19919;-41
2023/07/15 08:36:41;;;;;;;;;;;25.20;90.00;;;;;;5117284;28;19908;-41
2023/07/15 08:39:07;;;;;;;;;;;25.20;90.00;;;;;;5105535;28;19916;-42
2023/07/15 08:41:33;;;;;;;;;;;25.10;90.00;;;;;;5075113;28;20381;-41
2023/07/15 08:43:58;;;;;;;;;;;25.20;90.10;;;;;;5095780;28;19912;-41
2023/07/15 08:46:26;;;;;;;;;;;25.20;90.10;;;;;;5096722;28;19915;-42
2023/07/15 08:48:52;;;;;;;;;;;25.10;90.00;;;;;;5101459;28;19912;-42
2023/07/15 08:51:18;;;;;;;;;;;25.20;89.90;;;;;;5107901;28;19951;-42
2023/07/15 08:53:44;;;;;;;;;;;25.20;90.00;;;;;;5092919;28;19912;-42
2023/07/15 08:56:11;;;;;;;;;;;25.10;90.00;;;;;;5096385;28;19958;-43
2023/07/15 08:58:37;;;;;;;;;;;25.20;90.00;;;;;;5094571;28;19916;-42
2023/07/15 09:01:02;;;;;;;;;;;25.20;90.00;;;;;;5102208;28;19916;-41
2023/07/15 09:03:28;;;;;;;;;;;25.10;90.00;;;;;;5095670;28;19908;-40
2023/07/15 09:05:53;;;;;;;;;;;25.20;90.00;;;;;;5095987;28;20301;-41
2023/07/15 09:08:19;;;;;;;;;;;25.20;90.00;;;;;;5096365;28;20378;-43
2023/07/15 09:10:52;;;;;;;;;;;25.20;90.00;;;;;;5097983;28;19916;-42
2023/07/15 09:13:24;;;;;;;;;;;25.10;90.00;;;;;;5113124;28;19965;-42
2023/07/15 09:15:50;;;;;;;;;;;25.20;90.00;;;;;;5094934;28;19912;-42
2023/07/15 09:18:15;;;;;;;;;;;25.20;90.00;;;;;;5094218;28;19920;-43
2023/07/15 09:20:41;;;;;;;;;;;25.20;90.00;;;;;;5095880;28;19920;-44
2023/07/15 09:23:07;;;;;;;;;;;25.20;90.00;;;;;;5095792;28;19915;-42
2023/07/15 09:25:35;;;;;;;;;;;25.20;89.90;;;;;;5095701;28;20358;-43
2023/07/15 09:28:01;;;;;;;;;;;25.20;90.00;;;;;;5110087;28;20354;-42
2023/07/15 09:30:26;;;;;;;;;;;25.20;90.00;;;;;;5089734;28;19998;-43
2023/07/15 09:32:52;;;;;;;;;;;25.20;90.00;;;;;;5103343;28;19912;-42
2023/07/15 09:35:17;;;;;;;;;;;25.20;90.00;;;;;;5099760;28;19954;-41
2023/07/15 09:37:46;;;;;;;;;;;25.20;90.10;;;;;;5095061;28;19908;-43
2023/07/15 09:40:11;;;;;;;;;;;25.20;90.20;;;;;;5095322;28;19922;-43
2023/07/15 09:42:50;;;;;;;;;;;25.20;90.20;;;;;;5095674;28;20270;-48
2023/07/15 09:45:35;;;;;;;;;;;25.20;90.20;;;;;;5095000;28;19924;-48
2023/07/15 09:48:04;;;;;;;;;;;25.10;90.20;;;;;;5095272;28;19959;-45
2023/07/15 09:50:30;;;;;;;;;;;25.10;90.30;;;;;;5095358;28;19994;-46
2023/07/15 09:52:57;;;;;;;;;;;25.20;90.30;;;;;;5094766;28;19939;-49
2023/07/15 09:55:23;;;;;;;;;;;25.20;90.30;;;;;;5095396;28;19908;-41
2023/07/15 09:57:51;;;;;;;;;;;25.20;90.30;;;;;;5094927;28;20189;-42
2023/07/15 10:00:18;;;;;;;;;;;25.20;90.30;;;;;;5114900;28;19960;-40
2023/07/15 10:02:46;;;;;;;;;;;25.20;90.40;;;;;;5115551;28;19947;-40
2023/07/15 10:05:14;;;;;;;;;;;25.20;90.40;;;;;;5115258;28;19915;-41
2023/07/15 10:07:43;;;;;;;;;;;25.20;90.40;;;;;;5115178;28;20428;-41
2023/07/15 10:10:09;;;;;;;;;;;25.20;90.40;;;;;;5115182;28;19908;-40
2023/07/15 10:12:35;;;;;;;;;;;25.20;90.40;;;;;;5114782;28;19908;-42
2023/07/15 10:15:02;;;;;;;;;;;25.20;90.40;;;;;;5114227;28;19914;-40
2023/07/15 10:17:35;;;;;;;;;;;25.20;90.50;;;;;;5114905;28;19920;-45
2023/07/15 10:20:13;;;;;;;;;;;25.20;90.50;;;;;;5115050;28;19916;-44
2023/07/15 10:22:39;;;;;;;;;;;25.20;90.50;;;;;;5115130;28;19908;-41
2023/07/15 10:25:08;;;;;;;;;;;25.20;90.50;;;;;;5114503;28;19998;-43
2023/07/15 10:27:34;;;;;;;;;;;25.20;90.50;;;;;;5114797;28;19908;-45
2023/07/15 10:30:19;;;;;;;;;;;25.20;90.50;;;;;;5107061;28;20366;-41
2023/07/15 10:33:05;;;;;;;;;;;25.20;90.50;;;;;;5107591;28;19920;-43
2023/07/15 10:35:32;;;;;;;;;;;25.20;90.50;;;;;;5095242;28;19919;-42
2023/07/15 10:38:01;;;;;;;;;;;25.20;90.60;;;;;;5094311;28;19954;-43
2023/07/15 10:40:45;;;;;;;;;;;25.20;90.50;;;;;;5105977;28;20287;-42
2023/07/15 10:43:11;;;;;;;;;;;25.20;90.50;;;;;;5108518;28;19922;-41
2023/07/15 10:45:42;;;;;;;;;;;25.20;90.40;;;;;;5114110;28;19919;-42
2023/07/15 10:48:08;;;;;;;;;;;25.20;90.40;;;;;;5114111;28;19968;-43
2023/07/15 10:50:35;;;;;;;;;;;25.20;90.40;;;;;;5102127;28;20287;-42
2023/07/15 10:53:23;;;;;;;;;;;25.20;90.50;;;;;;5093408;28;19938;-43
2023/07/15 10:56:09;;;;;;;;;;;25.20;90.50;;;;;;5094336;28;19911;-41
2023/07/15 10:58:35;;;;;;;;;;;25.20;90.40;;;;;;5111909;28;20012;-42
2023/07/15 11:01:00;;;;;;;;;;;25.20;90.50;;;;;;5096325;28;19966;-43
2023/07/15 11:03:27;;;;;;;;;;;25.20;90.50;;;;;;5114168;28;19912;-45
2023/07/15 11:05:54;;;;;;;;;;;25.20;90.50;;;;;;5090131;28;20270;-43
2023/07/15 11:08:19;;;;;;;;;;;25.20;90.50;;;;;;5089401;28;19918;-42
2023/07/15 11:10:45;;;;;;;;;;;25.20;90.40;;;;;;5075961;28;19912;-42
2023/07/15 11:13:11;;;;;;;;;;;25.20;90.50;;;;;;5081076;28;19909;-41
2023/07/15 11:15:37;;;;;;;;;;;25.20;90.30;;;;;;5093179;28;19908;-40
2023/07/15 11:18:02;;;;;;;;;;;25.20;90.20;;;;;;5106416;28;19922;-42
2023/07/15 11:20:28;;;;;;;;;;;25.20;90.30;;;;;;5093001;28;20414;-45
2023/07/15 11:22:54;;;;;;;;;;;25.20;90.30;;;;;;5109958;28;19919;-43
2023/07/15 11:25:20;;;;;;;;;;;25.20;90.30;;;;;;5108903;28;19932;-43
2023/07/15 11:27:46;;;;;;;;;;;25.20;90.40;;;;;;5101385;28;20258;-45
2023/07/15 11:30:11;;;;;;;;;;;25.20;90.40;;;;;;5092732;28;19908;-43
2023/07/15 11:32:37;;;;;;;;;;;25.30;90.40;;;;;;5075363;28;19919;-43
2023/07/15 11:35:14;;;;;;;;;;;25.30;90.40;;;;;;5100713;28;19912;-41
2023/07/15 11:37:43;;;;;;;;;;;25.20;90.40;;;;;;5095784;28;20030;-41
2023/07/15 11:40:18;;;;;;;;;;;25.20;90.30;;;;;;5111630;28;19912;-41
2023/07/15 11:42:43;;;;;;;;;;;25.20;90.40;;;;;;5100725;28;19912;-42
2023/07/15 11:45:09;;;;;;;;;;;25.20;90.40;;;;;;5113915;28;20419;-42
2023/07/15 11:47:35;;;;;;;;;;;25.20;90.40;;;;;;5099601;28;19999;-43
2023/07/15 11:50:01;;;;;;;;;;;25.20;90.40;;;;;;5093240;28;19912;-42
2023/07/15 11:52:27;;;;;;;;;;;25.20;90.40;;;;;;5093797;28;19915;-42
2023/07/15 11:54:53;;;;;;;;;;;25.20;90.40;;;;;;5112832;28;19912;-43
2023/07/15 11:57:27;;;;;;;;;;;25.20;90.40;;;;;;5107009;28;19926;-42
2023/07/15 11:59:53;;;;;;;;;;;25.30;90.50;;;;;;5109906;28;19962;-43
2023/07/15 12:02:19;;;;;;;;;;;25.30;90.50;;;;;;5097067;28;19947;-41
2023/07/15 12:04:45;;;;;;;;;;;25.20;90.30;;;;;;5097286;28;19908;-42
2023/07/15 12:07:10;;;;;;;;;;;25.30;90.40;;;;;;5097117;28;19953;-44
2023/07/15 12:09:36;;;;;;;;;;;25.20;90.40;;;;;;5097190;28;20346;-42
2023/07/15 12:12:02;;;;;;;;;;;25.20;90.30;;;;;;5096772;28;19908;-42
2023/07/15 12:14:30;;;;;;;;;;;25.20;90.40;;;;;;5097808;28;19913;-44
2023/07/15 12:16:58;;;;;;;;;;;25.20;90.40;;;;;;5097205;28;19962;-44
2023/07/15 12:19:24;;;;;;;;;;;25.30;90.40;;;;;;5097137;28;19957;-42
2023/07/15 12:21:49;;;;;;;;;;;25.30;90.50;;;;;;5097099;28;20335;-42
2023/07/15 12:24:15;;;;;;;;;;;25.30;90.40;;;;;;5097599;28;19943;-43
2023/07/15 12:26:40;;;;;;;;;;;25.30;90.30;;;;;;5096894;28;19912;-44
2023/07/15 12:29:06;;;;;;;;;;;25.30;90.40;;;;;;5096782;28;19935;-43
2023/07/15 12:31:31;;;;;;;;;;;25.30;90.30;;;;;;5095696;28;19912;-45
2023/07/15 12:33:57;;;;;;;;;;;25.30;90.40;;;;;;5097098;28;19912;-44
2023/07/15 12:36:22;;;;;;;;;;;25.30;90.40;;;;;;5096633;28;19995;-44
2023/07/15 12:38:48;;;;;;;;;;;25.30;90.40;;;;;;5095143;28;19916;-43
2023/07/15 12:41:13;;;;;;;;;;;25.20;90.40;;;;;;5096035;28;19916;-42
2023/07/15 12:43:39;;;;;;;;;;;25.20;90.40;;;;;;5109952;28;19953;-45
2023/07/15 12:46:05;;;;;;;;;;;25.30;90.40;;;;;;5116109;28;19986;-44
2023/07/15 12:48:31;;;;;;;;;;;25.30;90.40;;;;;;5098412;28;20320;-42
2023/07/15 12:50:56;;;;;;;;;;;25.30;90.40;;;;;;5115489;28;19916;-43
2023/07/15 12:53:22;;;;;;;;;;;25.30;90.40;;;;;;5116747;28;19912;-47
2023/07/15 12:55:48;;;;;;;;;;;25.20;90.30;;;;;;5116704;28;20006;-43
2023/07/15 12:58:14;;;;;;;;;;;25.30;90.40;;;;;;5116650;28;19959;-42
2023/07/15 13:00:39;;;;;;;;;;;25.30;90.30;;;;;;5116787;28;19911;-41
2023/07/15 13:03:07;;;;;;;;;;;25.20;90.30;;;;;;5103777;28;19955;-42
2023/07/15 13:05:33;;;;;;;;;;;25.30;90.40;;;;;;5094914;28;19994;-42
2023/07/15 13:07:58;;;;;;;;;;;25.30;90.30;;;;;;5115356;28;19999;-44
2023/07/15 13:10:24;;;;;;;;;;;25.30;90.30;;;;;;5114839;28;20348;-43
2023/07/15 13:12:49;;;;;;;;;;;25.30;90.30;;;;;;5111154;28;19916;-44
2023/07/15 13:15:15;;;;;;;;;;;25.30;90.30;;;;;;5112175;28;20270;-46
2023/07/15 13:17:40;;;;;;;;;;;25.20;90.30;;;;;;5095927;28;20239;-44
2023/07/15 13:20:09;;;;;;;;;;;25.30;90.30;;;;;;5096123;28;19959;-43
2023/07/15 13:22:37;;;;;;;;;;;25.30;90.40;;;;;;5096697;28;20002;-44
2023/07/15 13:25:03;;;;;;;;;;;25.30;90.50;;;;;;5096095;28;19908;-45
2023/07/15 13:27:29;;;;;;;;;;;25.30;90.50;;;;;;5095967;28;20361;-42
2023/07/15 13:29:54;;;;;;;;;;;25.30;90.50;;;;;;5095627;28;19953;-43
2023/07/15 13:32:20;;;;;;;;;;;25.30;90.40;;;;;;5095553;28;19908;-45
2023/07/15 13:34:45;;;;;;;;;;;25.30;90.40;;;;;;5095663;28;19912;-42
2023/07/15 13:37:11;;;;;;;;;;;25.30;90.40;;;;;;5095332;28;19908;-44
2023/07/15 13:39:37;;;;;;;;;;;25.30;90.40;;;;;;5100874;28;19922;-47
2023/07/15 13:42:04;;;;;;;;;;;25.30;90.40;;;;;;5116043;28;20298;-41
2023/07/15 13:44:30;;;;;;;;;;;25.30;90.40;;;;;;5108436;28;19924;-44
2023/07/15 13:46:56;;;;;;;;;;;25.30;90.50;;;;;;5096942;28;19915;-41
2023/07/15 13:49:21;;;;;;;;;;;25.30;90.50;;;;;;5095768;28;19912;-42
2023/07/15 13:51:47;;;;;;;;;;;25.30;90.50;;;;;;5095064;28;19908;-44
2023/07/15 13:54:12;;;;;;;;;;;25.30;90.60;;;;;;5104290;28;19912;-42
2023/07/15 13:56:38;;;;;;;;;;;25.30;90.70;;;;;;5108822;28;19945;-44
2023/07/15 13:59:03;;;;;;;;;;;25.30;90.60;;;;;;5086215;28;19916;-44
2023/07/15 14:01:29;;;;;;;;;;;25.30;90.70;;;;;;5102900;28;19957;-42
2023/07/15 14:03:54;;;;;;;;;;;25.30;90.60;;;;;;5115592;28;20337;-43
2023/07/15 14:06:20;;;;;;;;;;;25.30;90.50;;;;;;5115117;28;19908;-42
2023/07/15 14:08:46;;;;;;;;;;;25.30;90.50;;;;;;5115571;28;19958;-44
2023/07/15 14:11:11;;;;;;;;;;;25.30;90.50;;;;;;5115489;28;19908;-44